Time;durP1;ratioP1;P1;durP2;ratioP2;P2;SDS_P1;SDS_P2;PMS_P1;PMS_P2;Temp;Humidity;BMP_temperature;BMP_pressure;BME280_temperature;BME280_humidity;BME280_pressure;Samples;Min_cycle;Max_cycle;Signal;HPM_P1;HPM_P2
2021/12/25 00:02:20;;;;;;;13.43;12.03;;;7.20;99.90;;;;;;5070655;28;20202;-67
2021/12/25 00:04:45;;;;;;;13.40;11.20;;;7.10;99.90;;;;;;5079142;28;20200;-67
2021/12/25 00:07:11;;;;;;;13.57;12.13;;;7.10;99.90;;;;;;5091584;28;20192;-67
2021/12/25 00:09:36;;;;;;;13.47;12.17;;;7.00;99.90;;;;;;5085388;28;20178;-68
2021/12/25 00:12:02;;;;;;;12.87;11.53;;;7.10;99.90;;;;;;5071058;28;20262;-68
2021/12/25 00:14:28;;;;;;;13.00;11.70;;;7.10;99.90;;;;;;5075267;28;20177;-67
2021/12/25 00:16:54;;;;;;;12.33;11.30;;;7.10;99.90;;;;;;5091505;28;20197;-66
2021/12/25 00:19:19;;;;;;;13.80;12.50;;;7.10;99.90;;;;;;5088718;28;20242;-66
2021/12/25 00:21:45;;;;;;;12.27;11.23;;;7.10;99.90;;;;;;5071390;28;20635;-66
2021/12/25 00:24:10;;;;;;;12.83;11.67;;;7.10;99.90;;;;;;5072680;28;20261;-66
2021/12/25 00:29:16;;;;;;;12.27;11.03;;;7.10;99.90;;;;;;5075499;28;20177;-66
2021/12/25 00:31:49;;;;;;;12.90;11.43;;;7.00;99.90;;;;;;5075153;28;20190;-66
2021/12/25 00:34:15;;;;;;;12.43;11.20;;;7.00;99.90;;;;;;5074987;28;20643;-66
2021/12/25 00:36:41;;;;;;;12.90;11.70;;;7.10;99.90;;;;;;5095389;28;20186;-65
2021/12/25 00:39:06;;;;;;;12.70;11.53;;;7.10;99.90;;;;;;5095434;28;20197;-65
2021/12/25 00:41:32;;;;;;;12.40;11.40;;;7.10;99.90;;;;;;5076241;28;20654;-67
2021/12/25 00:43:58;;;;;;;12.40;11.30;;;7.20;99.90;;;;;;5087072;28;20177;-66
2021/12/25 00:46:23;;;;;;;12.63;11.53;;;7.20;99.90;;;;;;5103956;22;20639;-64
2021/12/25 00:48:49;;;;;;;11.13;10.23;;;7.20;99.90;;;;;;5033690;28;20215;-64
2021/12/25 00:51:15;;;;;;;12.30;11.10;;;7.30;99.90;;;;;;5035096;28;20175;-64
2021/12/25 00:53:40;;;;;;;12.17;11.07;;;7.30;99.90;;;;;;5034523;28;20265;-64
2021/12/25 00:56:06;;;;;;;12.33;11.23;;;7.20;99.90;;;;;;5034867;28;20188;-65
2021/12/25 00:58:31;;;;;;;11.67;10.67;;;7.20;99.90;;;;;;5034315;28;20397;-64
2021/12/25 01:00:57;;;;;;;12.07;11.07;;;7.20;99.90;;;;;;5034516;28;20361;-64
2021/12/25 01:03:23;;;;;;;12.00;10.83;;;7.20;99.90;;;;;;5034231;28;20179;-65
2021/12/25 01:05:48;;;;;;;13.93;11.50;;;7.20;99.90;;;;;;5034828;28;20198;-63
2021/12/25 01:08:14;;;;;;;12.33;11.13;;;7.10;99.90;;;;;;5034096;28;20178;-65
2021/12/25 01:10:40;;;;;;;11.83;10.90;;;7.10;99.90;;;;;;5034675;28;20175;-65
2021/12/25 01:13:11;;;;;;;12.27;11.13;;;7.10;99.90;;;;;;5034011;28;20263;-63
2021/12/25 01:16:51;;;;;;;12.20;11.00;;;7.10;99.90;;;;;;5034864;28;20203;-64
2021/12/25 01:18:58;;;;;;;12.30;10.97;;;7.10;99.90;;;;;;5026847;28;20188;-65
2021/12/25 01:36:48;;;;;;;11.17;10.23;;;7.00;99.90;;;;;;5034167;28;20195;-64
2021/12/25 01:39:46;;;;;;;12.63;11.43;;;6.90;99.90;;;;;;5032671;28;20176;-63
2021/12/25 01:47:51;;;;;;;11.60;10.60;;;6.60;99.90;;;;;;5014688;28;20555;-64
2021/12/25 01:50:28;;;;;;;11.40;10.50;;;6.60;99.90;;;;;;5030656;28;20544;-65
2021/12/25 01:52:56;;;;;;;11.27;10.27;;;6.60;99.90;;;;;;5032302;28;20202;-65
2021/12/25 01:55:26;;;;;;;11.50;10.57;;;6.50;99.90;;;;;;5033330;28;20290;-64
2021/12/25 01:57:53;;;;;;;11.57;10.67;;;6.60;99.90;;;;;;5033747;28;20259;-64
2021/12/25 02:00:22;;;;;;;11.53;10.47;;;6.60;99.90;;;;;;5033584;28;20172;-64
2021/12/25 02:02:48;;;;;;;11.53;10.60;;;6.60;99.90;;;;;;5033450;28;20623;-64
2021/12/25 02:05:14;;;;;;;12.20;11.00;;;6.60;99.90;;;;;;5031979;28;20206;-65
2021/12/25 02:07:40;;;;;;;12.17;10.87;;;6.70;99.90;;;;;;5033466;28;20532;-65
2021/12/25 02:10:07;;;;;;;12.10;10.93;;;6.80;99.90;;;;;;5032156;28;20274;-64
2021/12/25 02:12:34;;;;;;;10.63;9.73;;;6.80;99.90;;;;;;5032838;28;20290;-65
2021/12/25 02:15:09;;;;;;;11.27;10.30;;;6.80;99.90;;;;;;5033537;28;20176;-65
2021/12/25 02:20:26;;;;;;;11.93;11.00;;;6.80;99.90;;;;;;5033469;28;20663;-64
2021/12/25 02:22:59;;;;;;;11.20;10.40;;;6.80;99.90;;;;;;5031797;28;20172;-65
2021/12/25 02:25:25;;;;;;;11.77;10.87;;;6.80;99.90;;;;;;5031930;28;20748;-65
2021/12/25 02:27:51;;;;;;;11.43;10.53;;;6.70;99.90;;;;;;5031859;28;20180;-65
2021/12/25 02:30:16;;;;;;;11.27;10.37;;;6.70;99.90;;;;;;5033238;28;20591;-64
2021/12/25 02:32:44;;;;;;;11.70;10.73;;;6.70;99.90;;;;;;5031505;28;20723;-64
2021/12/25 02:35:11;;;;;;;9.53;8.83;;;6.70;99.90;;;;;;5033054;28;20167;-64
2021/12/25 02:37:36;;;;;;;10.07;9.30;;;6.70;99.90;;;;;;5031452;28;20160;-63
2021/12/25 02:40:03;;;;;;;9.50;8.80;;;6.60;99.90;;;;;;5033715;28;20236;-63
2021/12/25 02:42:28;;;;;;;10.33;9.43;;;6.60;99.90;;;;;;5032567;28;20186;-63
2021/12/25 02:44:54;;;;;;;9.43;8.73;;;6.60;99.90;;;;;;5033271;28;20183;-63
2021/12/25 02:47:21;;;;;;;10.43;9.67;;;6.50;99.90;;;;;;5032173;28;20269;-63
2021/12/25 02:49:51;;;;;;;9.57;8.77;;;6.50;99.90;;;;;;5033097;28;20632;-63
2021/12/25 02:52:18;;;;;;;9.63;8.90;;;6.50;99.90;;;;;;5032162;28;20282;-64
2021/12/25 02:54:44;;;;;;;9.83;9.03;;;6.50;99.90;;;;;;5031379;28;20175;-63
2021/12/25 02:57:13;;;;;;;9.73;9.00;;;6.40;99.90;;;;;;5032168;28;20201;-63
2021/12/25 02:59:40;;;;;;;10.40;9.50;;;6.40;99.90;;;;;;5030980;28;20640;-63
2021/12/25 03:02:15;;;;;;;10.90;10.00;;;6.50;99.90;;;;;;5032336;28;20206;-63
2021/12/25 03:04:44;;;;;;;10.33;9.47;;;6.40;99.90;;;;;;5032075;28;20177;-63
2021/12/25 03:07:11;;;;;;;10.87;9.97;;;6.30;99.90;;;;;;5032681;28;20241;-63
2021/12/25 03:09:38;;;;;;;10.70;9.80;;;6.30;99.90;;;;;;5030903;28;20202;-63
2021/12/25 03:12:06;;;;;;;10.63;9.70;;;6.30;99.90;;;;;;5032254;28;20207;-64
2021/12/25 03:15:01;;;;;;;10.70;9.87;;;6.30;99.90;;;;;;5031880;28;20171;-64
2021/12/25 03:17:26;;;;;;;10.50;9.60;;;6.30;99.90;;;;;;5031938;28;20657;-64
2021/12/25 03:19:54;;;;;;;10.20;9.40;;;6.30;99.90;;;;;;5030919;28;20214;-64
2021/12/25 03:22:20;;;;;;;9.97;9.27;;;6.10;99.90;;;;;;5031714;28;20176;-64
2021/12/25 03:24:46;;;;;;;10.17;9.30;;;6.10;99.90;;;;;;5030356;28;20253;-64
2021/12/25 03:27:12;;;;;;;10.30;9.40;;;6.00;99.90;;;;;;5031988;28;20199;-64
2021/12/25 03:29:40;;;;;;;10.70;9.80;;;6.00;99.90;;;;;;5031821;28;20184;-64
2021/12/25 03:32:06;;;;;;;9.63;8.87;;;5.90;99.90;;;;;;5031591;28;20191;-64
2021/12/25 03:34:32;;;;;;;10.77;9.97;;;5.90;99.90;;;;;;5031914;28;20184;-64
2021/12/25 03:36:58;;;;;;;10.20;9.43;;;5.90;99.90;;;;;;5031657;28;20210;-64
2021/12/25 03:39:23;;;;;;;9.63;8.73;;;5.80;99.90;;;;;;5030607;28;20198;-64
2021/12/25 03:41:49;;;;;;;9.63;8.93;;;5.70;99.90;;;;;;5031845;28;20209;-64
2021/12/25 03:44:15;;;;;;;10.47;9.57;;;5.70;99.90;;;;;;5030337;28;20238;-64
2021/12/25 03:46:41;;;;;;;10.40;9.53;;;5.70;99.90;;;;;;5030225;28;20328;-64
2021/12/25 03:49:25;;;;;;;10.43;9.50;;;5.60;99.90;;;;;;5030747;28;20219;-64
2021/12/25 04:00:27;;;;;;;11.47;10.47;;;5.40;99.90;;;;;;4989064;28;20238;-65
2021/12/25 04:02:57;;;;;;;11.70;10.60;;;5.40;99.90;;;;;;5024759;28;20210;-65
2021/12/25 04:05:28;;;;;;;11.93;10.87;;;5.30;99.90;;;;;;5031053;28;20641;-65
2021/12/25 04:08:11;;;;;;;11.80;10.70;;;5.40;99.90;;;;;;5031269;28;20313;-65
2021/12/25 04:10:40;;;;;;;13.50;11.93;;;5.30;99.90;;;;;;5011959;28;20180;-64
2021/12/25 04:13:10;;;;;;;11.60;10.60;;;5.30;99.90;;;;;;5027635;28;20703;-65
2021/12/25 04:15:36;;;;;;;11.63;10.33;;;5.30;99.90;;;;;;5031540;28;20194;-64
2021/12/25 04:18:03;;;;;;;13.20;11.90;;;5.30;99.90;;;;;;5031426;28;20182;-64
2021/12/25 04:20:29;;;;;;;12.93;11.73;;;5.30;99.90;;;;;;5030973;28;20186;-64
2021/12/25 04:23:05;;;;;;;12.93;11.83;;;5.30;99.90;;;;;;5029661;28;20189;-64
2021/12/25 04:25:34;;;;;;;13.00;11.87;;;5.20;99.90;;;;;;5030613;28;20668;-64
2021/12/25 04:28:28;;;;;;;14.77;12.60;;;5.30;99.90;;;;;;5029976;28;20183;-64
2021/12/25 05:03:22;;;;;;;14.03;12.60;;;5.00;99.90;;;;;;5031226;28;20237;-64
2021/12/25 05:05:48;;;;;;;16.03;13.80;;;5.00;99.90;;;;;;5030767;28;20203;-64
2021/12/25 05:08:14;;;;;;;17.13;13.80;;;5.00;99.90;;;;;;5030526;28;20186;-64
2021/12/25 05:10:40;;;;;;;15.90;14.03;;;5.00;99.90;;;;;;5031525;28;20183;-64
2021/12/25 05:13:06;;;;;;;15.57;13.87;;;4.90;99.90;;;;;;5034185;28;20206;-64
2021/12/25 05:15:31;;;;;;;15.10;13.50;;;5.00;99.90;;;;;;5034576;28;20195;-64
2021/12/25 05:17:57;;;;;;;15.47;13.50;;;5.00;99.90;;;;;;5034358;28;20202;-64
2021/12/25 05:20:24;;;;;;;16.37;14.63;;;4.90;99.90;;;;;;5033284;28;20179;-64
2021/12/25 05:22:49;;;;;;;15.77;14.00;;;4.80;99.90;;;;;;5033977;28;20516;-64
2021/12/25 05:25:15;;;;;;;16.30;14.57;;;4.80;99.90;;;;;;5033007;28;20201;-64
2021/12/25 05:27:41;;;;;;;16.40;14.73;;;4.70;99.90;;;;;;5034332;28;20603;-64
2021/12/25 05:30:08;;;;;;;17.27;14.27;;;4.60;99.90;;;;;;5034075;28;20179;-64
2021/12/25 05:32:34;;;;;;;18.27;15.07;;;4.60;99.90;;;;;;5032397;28;20202;-64
2021/12/25 05:35:00;;;;;;;18.13;15.00;;;4.60;99.90;;;;;;5034181;28;20171;-64
2021/12/25 05:37:25;;;;;;;19.27;15.57;;;4.60;99.90;;;;;;5032739;28;20180;-63
2021/12/25 05:39:51;;;;;;;18.23;15.40;;;4.60;99.90;;;;;;5033027;28;20258;-64
2021/12/25 05:42:22;;;;;;;19.40;16.47;;;4.50;99.90;;;;;;5033529;28;20179;-64
2021/12/25 05:44:49;;;;;;;17.60;15.70;;;4.50;99.90;;;;;;5033875;28;20591;-64
2021/12/25 05:47:15;;;;;;;19.37;15.73;;;4.50;99.90;;;;;;5033500;28;20297;-64
2021/12/25 05:49:40;;;;;;;17.67;14.80;;;4.40;99.90;;;;;;5020327;28;20184;-64
2021/12/25 05:52:07;;;;;;;17.13;14.80;;;4.30;99.90;;;;;;5013930;28;20246;-64
2021/12/25 05:54:33;;;;;;;17.63;14.87;;;4.30;99.90;;;;;;5019877;28;20195;-64
2021/12/25 05:56:59;;;;;;;16.47;14.73;;;4.20;99.90;;;;;;5032535;28;20282;-64
2021/12/25 05:59:25;;;;;;;18.53;15.13;;;4.10;99.90;;;;;;5032003;28;20209;-64
2021/12/25 06:01:50;;;;;;;17.20;15.33;;;4.10;99.90;;;;;;5032356;28;20684;-64
2021/12/25 06:04:16;;;;;;;17.73;15.03;;;4.10;99.90;;;;;;5033207;28;20184;-64
2021/12/25 06:06:42;;;;;;;19.43;15.70;;;4.10;99.90;;;;;;5033576;28;20187;-64
2021/12/25 06:09:07;;;;;;;16.37;14.37;;;4.00;99.90;;;;;;5032119;28;20317;-64
2021/12/25 06:11:37;;;;;;;17.53;13.87;;;4.00;99.90;;;;;;5032514;28;20262;-64
2021/12/25 06:14:17;;;;;;;17.37;13.90;;;3.90;99.90;;;;;;5031887;28;20676;-64
2021/12/25 06:16:43;;;;;;;18.17;14.70;;;3.90;99.90;;;;;;5031995;28;20670;-64
2021/12/25 06:19:08;;;;;;;15.97;14.37;;;3.80;99.90;;;;;;5031955;28;20172;-64
2021/12/25 06:21:34;;;;;;;15.03;13.13;;;3.80;99.90;;;;;;5032427;28;20172;-64
2021/12/25 06:24:02;;;;;;;17.03;14.50;;;3.80;99.90;;;;;;5032818;28;20175;-64
2021/12/25 06:26:28;;;;;;;15.67;14.07;;;3.70;99.90;;;;;;5031867;28;20242;-64
2021/12/25 06:28:54;;;;;;;17.10;14.40;;;3.70;99.90;;;;;;5032877;28;20240;-64
2021/12/25 06:31:21;;;;;;;16.07;14.37;;;3.70;99.90;;;;;;5031756;28;20186;-64
2021/12/25 06:33:46;;;;;;;17.20;15.40;;;3.70;99.90;;;;;;5031107;28;20200;-64
2021/12/25 06:36:12;;;;;;;18.33;15.20;;;3.60;99.90;;;;;;5031944;28;20191;-64
2021/12/25 06:38:40;;;;;;;16.03;14.40;;;3.60;99.90;;;;;;5032906;28;20210;-64
2021/12/25 06:41:06;;;;;;;15.67;14.10;;;3.60;99.90;;;;;;5032241;28;20652;-64
2021/12/25 06:43:31;;;;;;;18.37;14.30;;;3.70;99.90;;;;;;5032618;28;20215;-64
2021/12/25 06:45:57;;;;;;;17.60;15.70;;;3.70;99.90;;;;;;5034550;22;20224;-65
2021/12/25 06:48:23;;;;;;;19.60;17.60;;;3.70;99.90;;;;;;5013827;28;20653;-64
2021/12/25 06:50:48;;;;;;;18.20;16.40;;;3.70;99.90;;;;;;5012895;28;20169;-64
2021/12/25 06:53:14;;;;;;;18.03;14.80;;;3.70;99.90;;;;;;5012399;28;20707;-64
2021/12/25 06:55:40;;;;;;;16.73;15.10;;;3.60;99.90;;;;;;5012879;28;20241;-64
2021/12/25 06:58:05;;;;;;;18.10;16.20;;;3.60;99.90;;;;;;5012803;28;20176;-64
2021/12/25 07:00:32;;;;;;;16.90;15.13;;;3.60;99.90;;;;;;5011348;28;20179;-65
2021/12/25 07:02:57;;;;;;;17.43;15.13;;;3.60;99.90;;;;;;5012111;28;20315;-66
2021/12/25 07:05:24;;;;;;;17.93;14.77;;;3.60;99.90;;;;;;5012362;28;20259;-65
2021/12/25 07:07:51;;;;;;;16.83;14.73;;;3.60;99.90;;;;;;5012760;28;20672;-65
2021/12/25 07:10:17;;;;;;;15.37;13.77;;;3.60;99.90;;;;;;5012614;28;20255;-65
2021/12/25 07:12:46;;;;;;;18.27;14.57;;;3.60;99.90;;;;;;5010541;28;20677;-65
2021/12/25 07:15:12;;;;;;;17.50;15.37;;;3.50;99.90;;;;;;5012778;28;20283;-64
2021/12/25 07:17:38;;;;;;;16.87;15.13;;;3.50;99.90;;;;;;5012398;28;20196;-65
2021/12/25 07:20:05;;;;;;;13.93;12.60;;;3.50;99.90;;;;;;5012459;28;20172;-65
2021/12/25 07:22:31;;;;;;;15.70;14.10;;;3.50;99.90;;;;;;5010448;28;20525;-65
2021/12/25 07:24:56;;;;;;;15.23;13.80;;;3.40;99.90;;;;;;5012515;28;20179;-65
2021/12/25 07:27:22;;;;;;;14.90;13.40;;;3.50;99.90;;;;;;5012095;28;20200;-64
2021/12/25 07:29:48;;;;;;;12.57;11.27;;;3.50;99.90;;;;;;5012276;28;20226;-65
2021/12/25 07:32:13;;;;;;;13.07;11.73;;;3.50;99.90;;;;;;5011360;28;20250;-64
2021/12/25 07:34:40;;;;;;;15.30;12.93;;;3.50;99.90;;;;;;5011980;28;20267;-65
2021/12/25 07:37:06;;;;;;;15.20;13.70;;;3.40;99.90;;;;;;5011961;28;20262;-65
2021/12/25 07:39:32;;;;;;;14.27;12.90;;;3.40;99.90;;;;;;5011998;28;20182;-64
2021/12/25 07:41:58;;;;;;;15.03;13.07;;;3.40;99.90;;;;;;5010422;28;20188;-64
2021/12/25 07:44:24;;;;;;;13.60;12.30;;;3.40;99.90;;;;;;5011471;28;20168;-64
2021/12/25 07:46:50;;;;;;;14.50;12.57;;;3.40;99.90;;;;;;5012160;28;20297;-65
2021/12/25 07:49:17;;;;;;;17.53;12.67;;;3.40;99.90;;;;;;5012081;28;20168;-64
2021/12/25 07:51:43;;;;;;;17.47;14.57;;;3.40;99.90;;;;;;5011655;28;20533;-65
2021/12/25 07:54:09;;;;;;;14.37;13.03;;;3.50;99.90;;;;;;5011427;28;20183;-65
2021/12/25 07:56:35;;;;;;;13.30;11.97;;;3.50;99.90;;;;;;5011589;28;20602;-65
2021/12/25 07:59:01;;;;;;;13.33;12.03;;;3.50;99.90;;;;;;5011587;28;20358;-65
2021/12/25 08:01:27;;;;;;;13.00;11.70;;;3.50;99.90;;;;;;5011372;28;20200;-65
2021/12/25 08:03:52;;;;;;;13.50;12.30;;;3.50;99.90;;;;;;5011615;28;20258;-65
2021/12/25 08:06:18;;;;;;;13.53;12.33;;;3.50;99.90;;;;;;5011058;28;20195;-65
2021/12/25 08:08:44;;;;;;;13.20;12.00;;;3.40;99.90;;;;;;5010380;28;20176;-65
2021/12/25 08:11:10;;;;;;;15.13;13.57;;;3.30;99.90;;;;;;5011242;28;20242;-64
2021/12/25 08:13:35;;;;;;;14.40;12.83;;;3.30;99.90;;;;;;5011064;28;20204;-65
2021/12/25 08:16:01;;;;;;;14.77;12.53;;;3.30;99.90;;;;;;5011437;28;20198;-64
2021/12/25 08:18:26;;;;;;;14.43;13.10;;;3.30;99.90;;;;;;5010682;28;20607;-64
2021/12/25 08:20:52;;;;;;;14.83;13.50;;;3.30;99.90;;;;;;5011314;28;20200;-66
2021/12/25 08:23:18;;;;;;;13.30;12.17;;;3.30;99.90;;;;;;5011084;28;20207;-65
2021/12/25 08:25:44;;;;;;;13.43;12.23;;;3.30;99.90;;;;;;5011411;28;20203;-66
2021/12/25 08:28:09;;;;;;;14.37;12.87;;;3.30;99.90;;;;;;5011519;28;20188;-65
2021/12/25 08:30:35;;;;;;;13.77;12.60;;;3.30;99.90;;;;;;5011372;28;20219;-65
2021/12/25 08:33:01;;;;;;;14.13;12.83;;;3.30;99.90;;;;;;5010739;28;20236;-65
2021/12/25 08:35:29;;;;;;;14.93;13.53;;;3.30;99.90;;;;;;5010925;28;20275;-65
2021/12/25 08:37:55;;;;;;;14.33;12.97;;;3.30;99.90;;;;;;5011592;28;20164;-65
2021/12/25 08:40:23;;;;;;;14.03;12.53;;;3.30;99.90;;;;;;5011103;28;20180;-65
2021/12/25 08:42:53;;;;;;;13.90;12.57;;;3.30;99.90;;;;;;5010815;28;20653;-65
2021/12/25 08:48:06;;;;;;;14.27;13.03;;;3.40;99.90;;;;;;5015215;28;20242;-65
2021/12/25 08:50:32;;;;;;;13.43;12.13;;;3.40;99.90;;;;;;5015058;28;20651;-65
2021/12/25 08:52:58;;;;;;;13.07;11.97;;;3.40;99.90;;;;;;5013210;28;20204;-65
2021/12/25 08:55:24;;;;;;;13.97;12.57;;;3.50;99.90;;;;;;5013394;28;20254;-66
2021/12/25 08:57:50;;;;;;;12.77;11.63;;;3.50;99.90;;;;;;5014916;28;20183;-64
2021/12/25 09:00:17;;;;;;;13.50;12.20;;;3.50;99.90;;;;;;5014630;28;20180;-65
2021/12/25 09:02:42;;;;;;;13.60;12.03;;;3.50;99.90;;;;;;5014523;28;20550;-65
2021/12/25 09:05:08;;;;;;;15.07;13.23;;;3.50;99.90;;;;;;5013505;28;20172;-65
2021/12/25 09:07:34;;;;;;;14.80;13.20;;;3.50;99.90;;;;;;5014749;28;20494;-65
2021/12/25 09:09:59;;;;;;;12.40;11.20;;;3.60;99.90;;;;;;5015436;28;20176;-65
2021/12/25 09:12:27;;;;;;;13.23;12.13;;;3.60;99.90;;;;;;5013835;28;20231;-63
2021/12/25 09:14:53;;;;;;;13.60;12.27;;;3.60;99.90;;;;;;5014472;28;20528;-65
2021/12/25 09:17:19;;;;;;;12.60;11.27;;;3.60;99.90;;;;;;4994974;28;20192;-65
2021/12/25 09:19:44;;;;;;;13.33;11.97;;;3.60;99.90;;;;;;4993962;28;20169;-64
2021/12/25 09:22:12;;;;;;;13.27;12.07;;;3.60;99.90;;;;;;5012665;28;20203;-65
2021/12/25 09:24:38;;;;;;;13.90;12.50;;;3.50;99.90;;;;;;5014722;28;20222;-65
2021/12/25 09:27:05;;;;;;;14.17;12.67;;;3.40;99.90;;;;;;5013907;28;20206;-65
2021/12/25 09:29:31;;;;;;;11.73;10.73;;;3.40;99.90;;;;;;5013002;28;20259;-65
2021/12/25 09:31:57;;;;;;;13.40;12.03;;;3.40;99.90;;;;;;5013481;28;20176;-65
2021/12/25 09:34:23;;;;;;;13.97;12.73;;;3.30;99.90;;;;;;5014076;28;20556;-64
2021/12/25 09:36:49;;;;;;;14.90;13.53;;;3.20;99.90;;;;;;5012673;28;20696;-65
2021/12/25 09:39:15;;;;;;;14.43;13.23;;;3.20;99.90;;;;;;5014288;28;20172;-65
2021/12/25 09:41:41;;;;;;;14.13;12.83;;;3.30;99.90;;;;;;5014106;28;20191;-64
2021/12/25 09:44:07;;;;;;;14.07;12.77;;;3.30;99.90;;;;;;5013941;28;20172;-64
2021/12/25 09:46:33;;;;;;;13.13;12.03;;;3.30;99.90;;;;;;5013769;28;20680;-65
2021/12/25 09:48:59;;;;;;;13.27;11.97;;;3.30;99.90;;;;;;5013816;28;20211;-64
2021/12/25 09:51:25;;;;;;;13.37;12.07;;;3.30;99.90;;;;;;5013953;28;20657;-65
2021/12/25 09:53:56;;;;;;;13.23;11.83;;;3.30;99.90;;;;;;5013831;28;20658;-65
2021/12/25 09:56:22;;;;;;;13.57;12.27;;;3.30;99.90;;;;;;5012289;28;20204;-64
2021/12/25 09:58:48;;;;;;;13.93;11.60;;;3.40;99.90;;;;;;5013741;28;20218;-64
2021/12/25 10:01:30;;;;;;;12.87;11.63;;;3.50;99.90;;;;;;5012086;28;20234;-65
2021/12/25 10:03:55;;;;;;;14.60;12.37;;;3.50;99.90;;;;;;5014012;28;20233;-65
2021/12/25 10:06:47;;;;;;;12.53;11.50;;;3.50;99.90;;;;;;5012252;28;20346;-65
2021/12/25 10:09:16;;;;;;;13.33;12.17;;;3.50;99.90;;;;;;5013284;28;20587;-65
2021/12/25 10:12:03;;;;;;;13.53;11.70;;;3.50;99.90;;;;;;4997455;28;20191;-64
2021/12/25 10:14:30;;;;;;;14.20;12.83;;;3.60;99.90;;;;;;5013381;28;20172;-65
2021/12/25 10:16:56;;;;;;;14.37;12.97;;;3.60;99.90;;;;;;4993851;28;20626;-65
2021/12/25 10:19:23;;;;;;;13.47;12.23;;;3.50;99.90;;;;;;4994229;28;20639;-65
2021/12/25 10:22:06;;;;;;;13.13;11.93;;;3.50;99.90;;;;;;5012506;28;20180;-65
2021/12/25 10:24:38;;;;;;;13.10;11.73;;;3.40;99.90;;;;;;5008637;28;20262;-65
2021/12/25 10:27:16;;;;;;;12.93;11.67;;;3.40;99.90;;;;;;5011981;28;20271;-65
2021/12/25 10:29:42;;;;;;;13.17;11.97;;;3.40;99.90;;;;;;5010651;28;20633;-65
2021/12/25 10:32:23;;;;;;;13.73;12.43;;;3.40;99.90;;;;;;5013038;28;20675;-65
2021/12/25 10:34:50;;;;;;;14.83;13.37;;;3.40;99.90;;;;;;5013039;28;20210;-63
2021/12/25 10:37:19;;;;;;;14.73;13.23;;;3.50;99.90;;;;;;5011789;28;20195;-65
2021/12/25 10:39:46;;;;;;;11.93;10.93;;;3.60;99.90;;;;;;5013127;28;20184;-65
2021/12/25 10:42:32;;;;;;;15.20;13.70;;;3.60;99.90;;;;;;5012880;28;20666;-65
2021/12/25 10:45:02;;;;;;;12.83;11.57;;;3.70;99.90;;;;;;5012901;28;20183;-64
2021/12/25 10:47:31;;;;;;;14.80;13.30;;;3.80;99.90;;;;;;5013134;28;20323;-65
2021/12/25 10:50:09;;;;;;;15.47;14.00;;;3.90;99.90;;;;;;5012710;28;20188;-65
2021/12/25 10:52:43;;;;;;;14.47;12.97;;;4.00;99.90;;;;;;5012762;28;20286;-65
2021/12/25 10:55:25;;;;;;;17.53;14.57;;;4.10;99.90;;;;;;5012498;28;20269;-65
2021/12/25 10:57:52;;;;;;;14.03;12.67;;;4.20;99.90;;;;;;5011463;28;20452;-65
2021/12/25 11:00:21;;;;;;;15.13;13.73;;;4.30;99.90;;;;;;5012690;28;20173;-65
2021/12/25 11:03:07;;;;;;;13.53;12.23;;;4.50;99.90;;;;;;5012567;28;20723;-65
2021/12/25 11:05:34;;;;;;;14.67;13.37;;;4.50;99.90;;;;;;5012825;28;20753;-66
2021/12/25 11:08:14;;;;;;;12.60;11.40;;;4.60;99.90;;;;;;5012116;28;20537;-64
2021/12/25 11:10:53;;;;;;;14.17;12.87;;;4.50;99.90;;;;;;5012794;28;20187;-64
2021/12/25 11:13:32;;;;;;;14.60;13.10;;;4.50;99.90;;;;;;5012002;28;20203;-65
2021/12/25 11:16:27;;;;;;;12.57;11.27;;;4.60;99.90;;;;;;5012673;28;20250;-65
2021/12/25 11:19:12;;;;;;;15.53;13.70;;;4.50;99.90;;;;;;5012240;28;20180;-65
2021/12/25 11:21:54;;;;;;;14.30;13.00;;;4.50;99.90;;;;;;5012494;28;20179;-64
2021/12/25 11:24:26;;;;;;;16.40;14.70;;;4.60;99.90;;;;;;5011082;28;20172;-64
2021/12/25 11:27:00;;;;;;;14.23;12.73;;;4.60;99.90;;;;;;5012276;28;20203;-64
2021/12/25 11:29:28;;;;;;;15.67;14.07;;;4.70;99.90;;;;;;4995538;28;20230;-64
2021/12/25 11:31:55;;;;;;;14.00;12.73;;;4.70;99.90;;;;;;5011969;28;20171;-64
2021/12/25 11:34:22;;;;;;;13.77;12.57;;;4.70;99.90;;;;;;5012047;28;20177;-64
2021/12/25 11:36:51;;;;;;;14.33;13.03;;;4.70;99.90;;;;;;5011819;28;20681;-64
2021/12/25 11:39:20;;;;;;;17.30;13.00;;;4.70;99.90;;;;;;5011961;28;20172;-64
2021/12/25 11:41:47;;;;;;;14.37;13.00;;;4.70;99.90;;;;;;5010644;28;20267;-64
2021/12/25 11:44:41;;;;;;;14.17;12.87;;;4.60;99.90;;;;;;5011855;28;20176;-64
2021/12/25 11:47:10;;;;;;;14.30;13.10;;;4.50;99.90;;;;;;5011517;28;20219;-64
2021/12/25 11:49:58;;;;;;;15.17;13.60;;;4.50;99.90;;;;;;5011784;28;20208;-64
2021/12/25 11:52:28;;;;;;;16.73;15.07;;;4.50;99.90;;;;;;5011601;28;20219;-64
2021/12/25 11:57:47;;;;;;;15.40;13.03;;;4.50;99.90;;;;;;5011911;28;20204;-64
2021/12/25 12:00:13;;;;;;;13.77;12.53;;;4.50;99.90;;;;;;5011588;28;20183;-64
2021/12/25 12:02:44;;;;;;;14.27;12.10;;;4.50;99.90;;;;;;5011745;28;20184;-64
2021/12/25 12:05:17;;;;;;;12.40;11.40;;;4.50;99.90;;;;;;5011541;28;20661;-64
2021/12/25 12:08:03;;;;;;;13.37;12.13;;;4.40;99.90;;;;;;5011866;28;20222;-64
2021/12/25 12:10:51;;;;;;;14.07;12.70;;;4.30;99.90;;;;;;5011423;28;20745;-64
2021/12/25 12:13:28;;;;;;;12.77;11.57;;;4.30;99.90;;;;;;5011261;28;20218;-64
2021/12/25 12:15:57;;;;;;;12.73;11.67;;;4.30;99.90;;;;;;5011295;28;20195;-64
2021/12/25 12:18:31;;;;;;;12.93;11.87;;;4.30;99.90;;;;;;5010947;28;20182;-64
2021/12/25 12:21:33;;;;;;;13.17;12.07;;;4.20;99.90;;;;;;5009381;28;20180;-64
2021/12/25 12:27:03;;;;;;;12.93;11.63;;;4.30;99.90;;;;;;5011349;28;20199;-64
2021/12/25 12:29:44;;;;;;;11.10;10.20;;;4.20;99.90;;;;;;5011366;28;20592;-64
2021/12/25 12:32:19;;;;;;;14.13;10.60;;;4.20;99.90;;;;;;5010858;28;20204;-64
2021/12/25 12:34:47;;;;;;;11.67;10.67;;;4.20;99.90;;;;;;5011752;28;20553;-64
2021/12/25 12:37:19;;;;;;;11.43;10.63;;;4.20;99.90;;;;;;5009521;28;20299;-64
2021/12/25 12:39:58;;;;;;;10.83;9.97;;;4.00;99.90;;;;;;5011438;28;20172;-62
2021/12/25 12:42:43;;;;;;;11.40;10.40;;;4.00;99.90;;;;;;5010924;28;20258;-63
2021/12/25 12:45:15;;;;;;;11.43;10.43;;;3.90;99.90;;;;;;5011311;28;20195;-63
2021/12/25 12:50:11;;;;;;;10.80;9.80;;;3.80;99.90;;;;;;5068116;28;20214;-66
2021/12/25 12:52:40;;;;;;;10.93;10.03;;;3.70;99.90;;;;;;5070448;28;20623;-66
2021/12/25 12:55:28;;;;;;;10.50;9.60;;;3.70;99.90;;;;;;5070892;28;20660;-66
2021/12/25 12:58:15;;;;;;;11.17;10.10;;;3.70;99.90;;;;;;5070801;28;20194;-66
2021/12/25 13:01:08;;;;;;;11.97;10.87;;;3.60;99.90;;;;;;5070748;28;20169;-66
2021/12/25 13:03:34;;;;;;;11.30;10.40;;;3.60;99.90;;;;;;5068548;28;20190;-66
2021/12/25 13:06:10;;;;;;;11.03;10.07;;;3.60;99.90;;;;;;5070867;28;20186;-65
2021/12/25 13:08:38;;;;;;;11.27;10.23;;;3.60;99.90;;;;;;5070726;28;20210;-65
2021/12/25 13:11:12;;;;;;;11.93;10.90;;;3.60;99.90;;;;;;5070661;28;20174;-65
2021/12/25 13:13:46;;;;;;;14.23;12.90;;;3.50;99.90;;;;;;5070392;28;20589;-66
2021/12/25 13:16:15;;;;;;;11.37;10.57;;;3.60;99.90;;;;;;5070573;28;20194;-66
2021/12/25 13:18:46;;;;;;;11.20;10.40;;;3.60;99.90;;;;;;5065861;28;20644;-66
2021/12/25 13:21:17;;;;;;;10.30;9.50;;;3.60;99.90;;;;;;5050599;28;20636;-66
2021/12/25 13:23:49;;;;;;;10.80;9.97;;;3.60;99.90;;;;;;5050413;28;20182;-66
2021/12/25 13:26:16;;;;;;;10.57;9.87;;;3.60;99.90;;;;;;5063842;28;20202;-66
2021/12/25 13:28:44;;;;;;;12.10;10.87;;;3.60;99.90;;;;;;5070713;28;20628;-66
2021/12/25 13:31:15;;;;;;;13.27;12.20;;;3.60;99.90;;;;;;5071281;28;20182;-66
2021/12/25 13:33:47;;;;;;;10.37;9.53;;;3.60;99.90;;;;;;5071822;28;20240;-66
2021/12/25 13:36:16;;;;;;;11.03;10.23;;;3.60;99.90;;;;;;5066862;28;20289;-66
2021/12/25 13:38:46;;;;;;;11.50;10.60;;;3.60;99.90;;;;;;5054003;28;20167;-65
2021/12/25 13:41:12;;;;;;;11.03;10.03;;;3.60;99.90;;;;;;5059967;28;20261;-66
2021/12/25 13:43:37;;;;;;;11.70;10.63;;;3.60;99.90;;;;;;5073054;28;20621;-66
2021/12/25 13:46:03;;;;;;;13.47;12.17;;;3.70;99.90;;;;;;5073407;28;20205;-66
2021/12/25 13:48:37;;;;;;;10.13;9.33;;;3.60;99.90;;;;;;5073386;28;20216;-65
2021/12/25 13:51:03;;;;;;;10.27;9.43;;;3.60;99.90;;;;;;5073708;28;20260;-66
2021/12/25 13:53:31;;;;;;;10.70;9.83;;;3.70;99.90;;;;;;5072558;28;20327;-66
2021/12/25 13:55:57;;;;;;;10.83;9.93;;;3.70;99.90;;;;;;5072472;28;20687;-66
2021/12/25 13:58:26;;;;;;;10.97;10.17;;;3.70;99.90;;;;;;5073584;28;20174;-66
2021/12/25 14:00:52;;;;;;;10.07;9.30;;;3.70;99.90;;;;;;5072096;28;20174;-66
2021/12/25 14:03:23;;;;;;;10.67;9.97;;;3.70;99.90;;;;;;5059744;28;20202;-66
2021/12/25 14:05:51;;;;;;;11.20;10.30;;;3.70;99.90;;;;;;5061633;28;20663;-66
2021/12/25 14:08:26;;;;;;;11.33;10.40;;;3.70;99.90;;;;;;5072902;28;20182;-66